Time;durP1;ratioP1;P1;durP2;ratioP2;P2;SDS_P1;SDS_P2;PMS_P1;PMS_P2;Temp;Humidity;BMP_temperature;BMP_pressure;BME280_temperature;BME280_humidity;BME280_pressure;Samples;Min_cycle;Max_cycle;Signal;HPM_P1;HPM_P2
2024/01/25 08:52:09;;;;;;;14.70;4.57;;;;;;;7.90;48.38;102573.50;4909128;29;20040;-75
2024/01/25 08:54:37;;;;;;;12.48;4.45;;;;;;;7.94;48.20;102578.69;4897801;29;20570;-74
2024/01/25 08:57:06;;;;;;;12.82;4.68;;;;;;;8.01;48.02;102581.16;4902131;29;20074;-74
2024/01/25 08:59:37;;;;;;;15.73;4.78;;;;;;;8.05;47.70;102578.19;4910198;29;20072;-74
2024/01/25 09:02:05;;;;;;;18.95;5.10;;;;;;;8.07;48.33;102570.81;4917992;29;20095;-75
2024/01/25 09:04:34;;;;;;;15.73;4.93;;;;;;;8.10;47.98;102567.91;4890181;29;20059;-74
2024/01/25 09:07:02;;;;;;;15.57;5.05;;;;;;;8.14;48.37;102571.41;4909679;29;20066;-74
2024/01/25 09:09:32;;;;;;;19.27;5.35;;;;;;;8.18;48.53;102576.63;4914089;29;20044;-75
2024/01/25 09:12:00;;;;;;;18.17;5.75;;;;;;;8.20;48.24;102577.44;4915837;29;20049;-75
2024/01/25 09:14:28;;;;;;;15.10;5.18;;;;;;;8.23;48.37;102577.28;4893394;29;20040;-76
2024/01/25 09:16:56;;;;;;;14.48;5.38;;;;;;;8.25;48.11;102583.56;4920498;29;20047;-75
2024/01/25 09:19:23;;;;;;;15.73;5.35;;;;;;;8.28;48.16;102571.59;4891941;29;20044;-75
2024/01/25 09:21:52;;;;;;;15.93;5.95;;;;;;;8.31;48.09;102568.72;4917062;29;20051;-75
2024/01/25 09:24:20;;;;;;;16.27;5.65;;;;;;;8.33;48.18;102577.72;4916468;29;20048;-75
2024/01/25 09:26:49;;;;;;;16.20;5.93;;;;;;;8.37;47.96;102583.88;4909531;29;20047;-75
2024/01/25 09:29:18;;;;;;;13.60;5.25;;;;;;;8.38;48.49;102596.56;4915720;29;20055;-75
2024/01/25 09:31:46;;;;;;;16.23;5.43;;;;;;;8.38;48.52;102594.72;4914909;29;20506;-75
2024/01/25 09:34:14;;;;;;;14.05;5.18;;;;;;;8.40;48.40;102602.84;4917159;29;20045;-76
2024/01/25 09:36:42;;;;;;;15.43;5.18;;;;;;;8.42;48.71;102600.91;4914483;29;20070;-76
2024/01/25 09:39:10;;;;;;;12.80;5.47;;;;;;;8.44;48.43;102591.66;4909090;29;20519;-75
2024/01/25 09:41:38;;;;;;;12.63;4.97;;;;;;;8.47;48.86;102587.91;4917692;29;20044;-75
2024/01/25 09:44:09;;;;;;;14.23;6.00;;;;;;;8.51;48.73;102598.56;4915613;29;20076;-76
2024/01/25 09:46:38;;;;;;;14.05;5.70;;;;;;;8.53;48.82;102610.31;4902190;29;20516;-75
2024/01/25 09:49:07;;;;;;;16.75;5.07;;;;;;;8.56;48.58;102623.81;4893048;29;20051;-75
2024/01/25 09:51:38;;;;;;;14.73;6.07;;;;;;;8.61;48.76;102629.91;4920473;29;20048;-75
2024/01/25 09:54:07;;;;;;;13.57;5.38;;;;;;;8.62;48.53;102623.47;4926276;29;20048;-75
2024/01/25 09:56:35;;;;;;;15.70;6.55;;;;;;;8.67;48.81;102624.13;4911831;29;20453;-75
2024/01/25 09:59:05;;;;;;;16.67;5.65;;;;;;;8.69;48.60;102626.78;4915809;29;20044;-75
2024/01/25 10:01:34;;;;;;;17.58;5.95;;;;;;;8.74;48.72;102635.63;4924938;29;20072;-75
2024/01/25 10:04:02;;;;;;;18.48;5.93;;;;;;;8.75;48.59;102634.66;4907262;29;20075;-75
2024/01/25 10:06:30;;;;;;;17.88;6.68;;;;;;;8.79;48.26;102629.91;4911533;29;20048;-75
2024/01/25 10:08:59;;;;;;;14.55;5.35;;;;;;;8.83;48.30;102634.25;4915432;29;20415;-75
2024/01/25 10:11:33;;;;;;;16.55;6.40;;;;;;;8.85;48.88;102625.00;4921259;29;20119;-75
2024/01/25 10:14:04;;;;;;;15.93;6.43;;;;;;;8.87;49.10;102614.91;4918072;29;20404;-75
2024/01/25 10:16:33;;;;;;;16.98;6.50;;;;;;;8.90;48.53;102620.22;4926221;29;20052;-75
2024/01/25 10:19:02;;;;;;;16.35;6.40;;;;;;;8.94;48.39;102620.91;4915136;29;20044;-75
2024/01/25 10:21:31;;;;;;;15.98;5.95;;;;;;;8.96;48.51;102619.88;4910488;29;20079;-75
2024/01/25 10:23:59;;;;;;;14.82;5.47;;;;;;;9.00;48.26;102615.16;4913190;29;20044;-75
2024/01/25 10:26:29;;;;;;;13.48;5.97;;;;;;;9.03;48.48;102617.69;4912537;29;20138;-75
2024/01/25 10:28:57;;;;;;;15.15;5.72;;;;;;;9.03;48.37;102613.13;4910815;29;20481;-76
2024/01/25 10:31:30;;;;;;;16.27;5.55;;;;;;;9.04;48.39;102616.72;4919822;29;20044;-75
2024/01/25 10:34:00;;;;;;;17.02;6.18;;;;;;;9.08;48.62;102616.47;4913999;29;20052;-76
2024/01/25 10:36:29;;;;;;;15.75;5.90;;;;;;;9.08;48.52;102615.63;4920448;29;20059;-75
2024/01/25 10:38:58;;;;;;;14.63;5.40;;;;;;;9.10;48.37;102620.00;4913048;29;20044;-75
2024/01/25 10:41:32;;;;;;;17.83;5.90;;;;;;;9.14;48.22;102615.28;4915200;29;20103;-75
2024/01/25 10:44:01;;;;;;;16.75;6.32;;;;;;;9.14;48.44;102600.75;4906813;29;20511;-75
2024/01/25 10:46:30;;;;;;;17.27;6.28;;;;;;;9.17;48.09;102585.06;4916348;29;20257;-75
2024/01/25 10:49:00;;;;;;;13.55;5.45;;;;;;;9.19;47.97;102576.78;4908013;29;20558;-75
2024/01/25 10:51:29;;;;;;;17.08;5.68;;;;;;;9.20;48.20;102570.34;4898765;29;20055;-75
2024/01/25 10:53:58;;;;;;;18.65;5.68;;;;;;;9.22;47.93;102573.88;4897253;29;20525;-75
2024/01/25 10:56:26;;;;;;;14.68;4.85;;;;;;;9.24;47.99;102567.38;4917525;29;20091;-76
2024/01/25 10:58:54;;;;;;;14.40;5.35;;;;;;;9.26;48.22;102570.88;4908945;29;20474;-75
2024/01/25 11:01:23;;;;;;;14.07;5.03;;;;;;;9.27;48.22;102553.53;4899658;29;20104;-75
2024/01/25 11:03:51;;;;;;;18.88;5.97;;;;;;;9.30;47.98;102561.56;4898659;29;20072;-75
2024/01/25 11:06:22;;;;;;;15.15;5.88;;;;;;;9.35;47.95;102564.03;4913987;29;20080;-75
2024/01/25 11:08:50;;;;;;;14.75;5.82;;;;;;;9.35;48.14;102561.31;4906744;29;20592;-75
2024/01/25 11:11:20;;;;;;;16.95;5.95;;;;;;;9.37;47.73;102557.53;4918557;29;20063;-76
2024/01/25 11:13:51;;;;;;;15.05;5.85;;;;;;;9.40;47.89;102556.53;4908535;29;20521;-75
2024/01/25 11:16:28;;;;;;;17.95;6.35;;;;;;;9.40;48.19;102546.47;4921664;29;20046;-75
2024/01/25 11:18:59;;;;;;;13.20;5.95;;;;;;;9.42;47.87;102535.44;4908276;29;20058;-75
2024/01/25 11:21:29;;;;;;;17.90;6.95;;;;;;;9.44;48.05;102542.59;4912277;29;20040;-75
2024/01/25 11:24:02;;;;;;;15.57;6.72;;;;;;;9.47;47.82;102544.28;4914194;29;20047;-75
2024/01/25 11:26:30;;;;;;;13.88;6.60;;;;;;;9.45;47.93;102524.34;4911054;29;20412;-75
2024/01/25 11:28:59;;;;;;;17.90;6.90;;;;;;;9.50;47.83;102532.25;4913629;29;20603;-75
2024/01/25 11:31:28;;;;;;;16.05;6.18;;;;;;;9.50;47.83;102544.06;4908514;29;20040;-75
2024/01/25 11:34:01;;;;;;;17.13;6.72;;;;;;;9.53;47.37;102549.38;4899070;29;20407;-75
2024/01/25 11:36:30;;;;;;;14.23;7.50;;;;;;;9.53;47.81;102551.22;4896969;29;20048;-75
2024/01/25 11:38:59;;;;;;;16.98;6.68;;;;;;;9.53;47.74;102530.25;4908830;29;20052;-75
2024/01/25 11:41:27;;;;;;;16.13;7.28;;;;;;;9.56;47.55;102529.22;4915271;29;20099;-75
2024/01/25 11:43:55;;;;;;;18.70;7.63;;;;;;;9.56;47.33;102510.94;4916337;29;20127;-75
2024/01/25 11:46:24;;;;;;;15.77;7.53;;;;;;;9.58;47.89;102499.91;4905251;29;20452;-75
2024/01/25 11:48:52;;;;;;;18.83;7.65;;;;;;;9.58;47.64;102505.38;4914959;29;20693;-75
2024/01/25 11:51:20;;;;;;;15.10;7.55;;;;;;;9.60;47.45;102506.16;4912550;29;20052;-75
2024/01/25 11:53:50;;;;;;;20.52;7.38;;;;;;;9.62;47.64;102505.13;4911737;29;20052;-75
2024/01/25 11:56:21;;;;;;;20.10;9.00;;;;;;;9.63;47.68;102500.53;4906481;29;20051;-75
2024/01/25 11:58:50;;;;;;;18.63;8.13;;;;;;;9.62;47.66;102501.50;4908692;29;20046;-75
2024/01/25 12:01:19;;;;;;;21.17;9.07;;;;;;;9.63;47.60;102506.00;4912885;29;20048;-75
2024/01/25 12:03:47;;;;;;;20.10;8.52;;;;;;;9.64;47.40;102503.19;4921411;29;20147;-76
2024/01/25 12:06:15;;;;;;;21.25;8.52;;;;;;;9.66;47.53;102497.66;4897588;29;20152;-75
2024/01/25 12:08:46;;;;;;;20.13;8.18;;;;;;;9.67;46.90;102491.19;4918951;29;20399;-75
2024/01/25 12:11:15;;;;;;;19.40;8.52;;;;;;;9.68;46.89;102485.63;4891686;29;20191;-75
2024/01/25 12:13:44;;;;;;;20.00;8.05;;;;;;;9.68;47.28;102482.00;4912669;29;20467;-75
2024/01/25 12:16:13;;;;;;;19.50;9.30;;;;;;;9.69;46.95;102476.47;4896298;29;20048;-75
2024/01/25 12:18:42;;;;;;;20.17;9.30;;;;;;;9.69;47.23;102472.84;4915899;29;20072;-75
2024/01/25 12:21:10;;;;;;;22.45;9.43;;;;;;;9.68;47.35;102476.53;4910307;29;20052;-75
2024/01/25 12:23:40;;;;;;;19.17;8.70;;;;;;;9.69;47.20;102478.31;4917196;29;20472;-75
2024/01/25 12:26:11;;;;;;;19.02;9.23;;;;;;;9.69;47.06;102486.50;4901434;29;20056;-75
2024/01/25 12:28:43;;;;;;;19.73;9.85;;;;;;;9.68;47.20;102491.09;4900174;29;20052;-75
2024/01/25 12:31:12;;;;;;;21.60;9.00;;;;;;;9.67;47.16;102489.31;4915662;29;20068;-75
2024/01/25 12:33:42;;;;;;;18.55;9.50;;;;;;;9.69;46.60;102495.59;4920609;29;20052;-75
2024/01/25 12:36:11;;;;;;;19.88;9.50;;;;;;;9.67;46.74;102474.78;4902271;29;20075;-75
2024/01/25 12:38:39;;;;;;;20.88;9.75;;;;;;;9.67;47.02;102456.53;4916204;29;20044;-75
2024/01/25 12:41:08;;;;;;;22.75;9.07;;;;;;;9.67;47.01;102462.00;4916058;29;20043;-75
2024/01/25 12:43:36;;;;;;;18.15;9.48;;;;;;;9.67;47.21;102474.78;4904681;29;20055;-75
2024/01/25 12:46:05;;;;;;;19.58;9.43;;;;;;;9.68;47.11;102477.44;4913025;29;20048;-75
2024/01/25 12:48:55;;;;;;;18.02;8.98;;;;;;;9.66;47.10;102473.91;4902211;29;20048;-75
2024/01/25 12:51:24;;;;;;;19.00;8.68;;;;;;;9.67;47.09;102464.72;4909793;29;20048;-75
2024/01/25 12:53:52;;;;;;;23.48;9.32;;;;;;;9.67;47.20;102462.00;4890764;29;20066;-75
2024/01/25 12:56:20;;;;;;;18.30;8.88;;;;;;;9.68;47.29;102473.81;4885763;29;20045;-75
2024/01/25 12:58:49;;;;;;;17.85;8.05;;;;;;;9.67;47.14;102463.84;4903438;29;20086;-75
2024/01/25 13:01:20;;;;;;;19.17;9.20;;;;;;;9.68;46.72;102449.19;4905609;29;20048;-75
2024/01/25 13:03:48;;;;;;;20.25;8.23;;;;;;;9.67;46.94;102434.66;4901606;29;20047;-75
2024/01/25 13:06:16;;;;;;;18.67;8.15;;;;;;;9.67;46.80;102434.66;4905665;29;20543;-77
2024/01/25 13:08:48;;;;;;;17.33;7.72;;;;;;;9.68;46.79;102435.53;4915797;29;20144;-75
2024/01/25 13:11:17;;;;;;;16.17;7.43;;;;;;;9.68;46.78;102420.00;4908647;29;20045;-77
2024/01/25 13:13:45;;;;;;;18.13;8.15;;;;;;;9.68;46.77;102417.28;4908318;29;20265;-75
2024/01/25 13:16:13;;;;;;;19.25;7.70;;;;;;;9.69;46.94;102420.91;4906400;29;20055;-75
2024/01/25 13:18:43;;;;;;;17.75;7.60;;;;;;;9.71;46.60;102421.69;4908989;29;20628;-75
2024/01/25 13:21:11;;;;;;;19.15;7.13;;;;;;;9.70;46.97;102422.66;4902289;29;20556;-75
2024/01/25 13:23:39;;;;;;;18.05;7.35;;;;;;;9.70;46.37;102419.94;4907673;29;20138;-74
2024/01/25 13:26:07;;;;;;;18.20;6.90;;;;;;;9.70;46.78;102411.72;4905657;29;20530;-75
2024/01/25 13:28:35;;;;;;;18.10;6.40;;;;;;;9.70;46.57;102418.09;4890276;29;20512;-75
2024/01/25 13:31:03;;;;;;;17.13;7.35;;;;;;;9.70;46.86;102409.88;4903683;29;20138;-74
2024/01/25 13:33:31;;;;;;;17.10;7.78;;;;;;;9.70;46.98;102401.69;4890247;29;20500;-75
2024/01/25 13:36:01;;;;;;;18.50;7.50;;;;;;;9.72;46.64;102399.75;4886487;29;20051;-75
2024/01/25 13:38:29;;;;;;;16.67;7.22;;;;;;;9.70;46.65;102407.16;4913302;29;20071;-75
2024/01/25 13:40:57;;;;;;;22.45;7.78;;;;;;;9.70;46.70;102407.16;4918312;29;20059;-75
2024/01/25 13:43:25;;;;;;;17.10;7.38;;;;;;;9.70;46.88;102398.94;4909681;29;20040;-75
2024/01/25 13:45:52;;;;;;;20.50;7.30;;;;;;;9.71;46.53;102405.28;4902181;29;20708;-75
2024/01/25 13:48:21;;;;;;;14.60;6.93;;;;;;;9.72;46.82;102407.06;4909884;29;20381;-74
2024/01/25 13:50:49;;;;;;;18.00;7.25;;;;;;;9.72;46.46;102397.00;4913489;29;20047;-75
2024/01/25 13:53:18;;;;;;;18.08;7.10;;;;;;;9.74;46.70;102386.84;4891522;29;20052;-75
2024/01/25 13:55:46;;;;;;;15.48;6.85;;;;;;;9.74;46.68;102386.00;4895799;29;20435;-75
2024/01/25 13:58:14;;;;;;;17.08;6.35;;;;;;;9.74;46.51;102369.59;4906907;29;20428;-75
2024/01/25 14:00:42;;;;;;;15.93;6.63;;;;;;;9.76;46.67;102364.88;4898281;29;20048;-74
2024/01/25 14:03:10;;;;;;;20.40;6.63;;;;;;;9.76;46.79;102362.13;4889080;29;20032;-75
2024/01/25 14:05:38;;;;;;;16.27;6.22;;;;;;;9.77;46.61;102361.16;4908094;29;20063;-75
2024/01/25 14:08:07;;;;;;;15.52;6.13;;;;;;;9.78;46.44;102363.81;4901154;29;20052;-75
2024/01/25 14:10:37;;;;;;;16.83;6.05;;;;;;;9.81;46.15;102369.13;4907003;29;20271;-75
2024/01/25 14:13:05;;;;;;;16.15;6.60;;;;;;;9.80;46.67;102369.19;4912520;29;20131;-75
2024/01/25 14:15:33;;;;;;;15.55;5.88;;;;;;;9.81;46.23;102369.13;4895389;29;20504;-74
2024/01/25 14:18:01;;;;;;;14.05;6.35;;;;;;;9.82;46.56;102370.84;4909774;29;20461;-75
2024/01/25 14:20:30;;;;;;;17.27;6.53;;;;;;;9.82;46.52;102365.38;4901955;29;20046;-74
2024/01/25 14:22:58;;;;;;;13.70;5.90;;;;;;;9.84;46.40;102357.09;4906279;29;20659;-75
2024/01/25 14:25:27;;;;;;;15.98;6.03;;;;;;;9.84;46.02;102352.50;4887873;29;20052;-75
2024/01/25 14:27:56;;;;;;;19.23;6.68;;;;;;;9.86;45.98;102344.22;4890815;29;20396;-74
2024/01/25 14:30:26;;;;;;;15.20;5.70;;;;;;;9.85;46.57;102331.50;4910004;29;20518;-75
2024/01/25 14:32:55;;;;;;;13.40;6.03;;;;;;;9.87;45.92;102315.91;4908539;29;20055;-75
2024/01/25 14:35:27;;;;;;;17.23;6.10;;;;;;;9.87;46.61;102312.28;4903940;29;20048;-75
2024/01/25 14:37:56;;;;;;;16.77;6.20;;;;;;;9.85;46.21;102324.19;4903870;29;20055;-75
2024/01/25 14:40:25;;;;;;;13.32;5.65;;;;;;;9.88;46.42;102322.25;4910520;29;20135;-75
2024/01/25 14:43:15;;;;;;;16.98;5.55;;;;;;;9.89;46.29;102332.22;4913797;29;20044;-75
2024/01/25 14:45:44;;;;;;;17.10;5.70;;;;;;;9.90;46.07;102320.31;4915584;29;20044;-75
2024/01/25 14:48:12;;;;;;;15.13;5.75;;;;;;;9.88;46.13;102306.72;4897650;29;20067;-75
2024/01/25 14:50:40;;;;;;;17.00;5.53;;;;;;;9.90;46.45;102309.38;4905111;29;20048;-73
2024/01/25 14:53:08;;;;;;;15.18;5.47;;;;;;;9.90;46.41;102303.91;4897414;29;20044;-74
2024/01/25 14:55:36;;;;;;;16.17;5.82;;;;;;;9.90;46.47;102309.38;4898529;29;20131;-74
2024/01/25 14:58:04;;;;;;;15.07;5.47;;;;;;;9.90;45.91;102304.78;4917048;29;20095;-74
2024/01/25 15:00:33;;;;;;;16.52;5.30;;;;;;;9.91;45.98;102294.69;4911061;29;20226;-73
2024/01/25 15:03:01;;;;;;;16.27;5.93;;;;;;;9.90;46.51;102293.84;4913461;29;20492;-74
2024/01/25 15:05:29;;;;;;;15.60;6.10;;;;;;;9.90;46.14;102299.31;4916845;29;20056;-74
2024/01/25 15:07:58;;;;;;;14.13;5.43;;;;;;;9.90;46.26;102298.44;4909167;29;20444;-74
2024/01/25 15:10:26;;;;;;;14.63;5.30;;;;;;;9.89;46.33;102292.06;4912745;29;20048;-73
2024/01/25 15:12:58;;;;;;;15.27;5.80;;;;;;;9.89;46.39;102291.19;4913680;29;20048;-73
2024/01/25 15:15:27;;;;;;;12.32;5.13;;;;;;;9.88;46.28;102290.31;4909749;29;20055;-73
2024/01/25 15:17:57;;;;;;;14.88;5.60;;;;;;;9.91;46.18;102286.47;4917137;29;20039;-74
2024/01/25 15:20:25;;;;;;;15.80;5.43;;;;;;;9.89;46.14;102281.13;4915236;29;20040;-74
2024/01/25 15:22:54;;;;;;;11.32;4.88;;;;;;;9.90;46.02;102284.75;4907856;29;20072;-74
2024/01/25 15:25:24;;;;;;;15.88;5.20;;;;;;;9.90;46.10;102276.56;4909262;29;20052;-74
2024/01/25 15:27:52;;;;;;;11.00;4.80;;;;;;;9.89;46.03;102281.13;4903021;29;20049;-73
2024/01/25 15:30:20;;;;;;;12.45;4.85;;;;;;;9.89;46.26;102281.13;4911961;29;20583;-74
2024/01/25 15:32:48;;;;;;;15.73;5.07;;;;;;;9.89;46.15;102272.06;4917571;29;20044;-74
2024/01/25 15:35:18;;;;;;;15.85;5.47;;;;;;;9.90;45.79;102257.41;4912764;29;20040;-73
2024/01/25 15:37:46;;;;;;;14.32;5.70;;;;;;;9.87;46.02;102250.25;4920782;29;20400;-72
2024/01/25 15:40:15;;;;;;;13.10;4.97;;;;;;;9.88;46.00;102262.09;4899172;29;20082;-74
2024/01/25 15:42:51;;;;;;;11.90;5.65;;;;;;;9.84;45.87;102248.59;4916915;29;20575;-73
2024/01/25 15:45:20;;;;;;;12.60;5.15;;;;;;;9.85;46.13;102244.88;4914753;29;20044;-73
2024/01/25 15:47:48;;;;;;;15.45;6.18;;;;;;;9.84;45.65;102240.38;4905041;29;20048;-74
2024/01/25 15:50:19;;;;;;;15.20;5.72;;;;;;;9.83;46.01;102244.09;4891397;29;20075;-73
2024/01/25 15:52:47;;;;;;;12.45;5.20;;;;;;;9.83;46.13;102237.75;4908944;29;20044;-74
2024/01/25 15:55:16;;;;;;;11.10;4.80;;;;;;;9.81;46.12;102243.34;4902783;29;20135;-74
2024/01/25 15:57:44;;;;;;;15.90;5.90;;;;;;;9.81;46.08;102245.19;4895654;29;20052;-76
2024/01/25 16:00:14;;;;;;;12.93;4.80;;;;;;;9.80;46.05;102244.31;4912488;29;20135;-75
2024/01/25 16:02:42;;;;;;;12.75;4.78;;;;;;;9.79;45.76;102242.53;4901605;29;20123;-76
2024/01/25 16:05:11;;;;;;;16.55;5.15;;;;;;;9.79;46.19;102247.13;4909528;29;20043;-75
2024/01/25 16:07:42;;;;;;;14.90;5.28;;;;;;;9.80;45.61;102248.91;4893317;29;20044;-76
2024/01/25 16:10:17;;;;;;;12.68;4.47;;;;;;;9.78;45.76;102245.38;4917591;29;20679;-75
2024/01/25 16:12:45;;;;;;;12.73;4.28;;;;;;;9.78;45.92;102245.38;4908902;29;20041;-75
2024/01/25 16:15:13;;;;;;;14.73;4.22;;;;;;;9.79;45.59;102247.13;4913545;29;20534;-74
2024/01/25 16:17:41;;;;;;;12.15;4.90;;;;;;;9.78;45.61;102243.50;4917693;29;20139;-74
2024/01/25 16:20:10;;;;;;;12.38;5.80;;;;;;;9.78;45.46;102238.03;4901998;29;20388;-74
2024/01/25 16:22:38;;;;;;;12.02;5.15;;;;;;;9.77;45.64;102240.88;4914935;29;20040;-74
2024/01/25 16:25:08;;;;;;;14.85;4.82;;;;;;;9.78;45.15;102238.03;4915527;29;20089;-74
2024/01/25 16:27:37;;;;;;;10.98;4.53;;;;;;;9.75;45.24;102238.22;4918010;29;20048;-74
2024/01/25 16:30:06;;;;;;;11.80;4.35;;;;;;;9.76;45.29;102230.91;4918745;29;20131;-74
2024/01/25 16:32:34;;;;;;;12.40;4.20;;;;;;;9.75;45.43;102237.34;4896752;29;20099;-74
2024/01/25 16:35:02;;;;;;;10.95;4.25;;;;;;;9.75;45.12;102237.34;4909102;29;20060;-74
2024/01/25 16:37:30;;;;;;;11.75;4.28;;;;;;;9.74;45.38;102235.63;4918570;29;20039;-74
2024/01/25 16:39:58;;;;;;;11.48;4.75;;;;;;;9.73;45.10;102233.84;4917965;29;20046;-74
2024/01/25 16:42:27;;;;;;;11.70;4.70;;;;;;;9.74;44.83;102227.41;4914893;29;20103;-77
2024/01/25 16:44:55;;;;;;;11.45;3.78;;;;;;;9.72;45.41;102223.88;4917858;29;20407;-77
2024/01/25 16:47:23;;;;;;;10.75;4.07;;;;;;;9.72;45.24;102227.50;4897275;29;20043;-77
2024/01/25 16:49:51;;;;;;;12.43;4.68;;;;;;;9.72;44.86;102226.63;4893545;29;20044;-77
2024/01/25 16:52:19;;;;;;;10.15;4.25;;;;;;;9.72;45.57;102226.63;4906649;29;20037;-77
2024/01/25 16:54:47;;;;;;;11.68;3.78;;;;;;;9.72;45.18;102235.72;4906679;29;20468;-77
2024/01/25 16:57:15;;;;;;;13.57;3.80;;;;;;;9.72;45.19;102226.63;4910743;29;20617;-77
2024/01/25 16:59:44;;;;;;;14.25;4.07;;;;;;;9.72;45.61;102226.63;4906867;29;20120;-77
2024/01/25 17:02:12;;;;;;;14.90;5.10;;;;;;;9.70;45.72;102217.63;4881089;29;20052;-76
2024/01/25 17:04:40;;;;;;;11.13;5.45;;;;;;;9.70;45.34;102217.63;4891431;29;20718;-76
2024/01/25 17:07:09;;;;;;;12.50;4.40;;;;;;;9.71;45.55;102220.28;4910750;29;20075;-76
2024/01/25 17:09:38;;;;;;;11.38;4.18;;;;;;;9.71;45.66;102212.06;4910354;29;20071;-76
2024/01/25 17:12:07;;;;;;;10.70;4.47;;;;;;;9.71;45.64;102208.47;4889428;29;20067;-75
2024/01/25 17:14:35;;;;;;;12.18;4.53;;;;;;;9.71;45.61;102211.19;4908342;29;20060;-76
2024/01/25 17:17:06;;;;;;;13.45;4.68;;;;;;;9.72;45.60;102196.56;4906607;29;20166;-76
2024/01/25 17:19:34;;;;;;;12.98;4.95;;;;;;;9.70;46.06;102201.22;4902734;29;20047;-75
2024/01/25 17:22:02;;;;;;;16.20;6.07;;;;;;;9.71;46.01;102208.47;4907237;29;20051;-76
2024/01/25 17:24:30;;;;;;;15.13;5.38;;;;;;;9.70;45.94;102207.56;4909280;29;20104;-75
2024/01/25 17:26:58;;;;;;;14.50;5.28;;;;;;;9.69;45.84;102208.53;4908030;29;20053;-75
2024/01/25 17:29:26;;;;;;;15.32;5.60;;;;;;;9.69;46.08;102214.00;4912125;29;20071;-75
2024/01/25 17:31:54;;;;;;;13.30;5.50;;;;;;;9.69;45.57;102214.00;4907460;29;20122;-75
2024/01/25 17:34:23;;;;;;;13.30;6.25;;;;;;;9.70;45.84;102217.63;4897465;29;20155;-75
2024/01/25 17:36:51;;;;;;;10.60;4.72;;;;;;;9.68;46.18;102216.84;4912582;29;20276;-75
2024/01/25 17:39:20;;;;;;;14.77;5.95;;;;;;;9.67;46.19;102226.88;4894417;29;20552;-76
2024/01/25 17:41:48;;;;;;;12.45;5.18;;;;;;;9.66;46.11;102240.69;4907174;29;20456;-75
2024/01/25 17:44:15;;;;;;;14.20;6.03;;;;;;;9.65;45.95;102238.91;4911556;29;20115;-76
2024/01/25 17:46:43;;;;;;;10.63;4.97;;;;;;;9.64;46.08;102235.31;4916206;29;20127;-76
2024/01/25 17:49:12;;;;;;;10.65;4.97;;;;;;;9.63;46.68;102235.38;4915579;29;20381;-76
2024/01/25 17:51:41;;;;;;;10.93;4.72;;;;;;;9.63;46.31;102235.38;4898975;29;20143;-76
2024/01/25 17:54:11;;;;;;;11.27;5.40;;;;;;;9.60;47.11;102236.44;4893115;29;20046;-76
2024/01/25 17:56:39;;;;;;;13.98;6.22;;;;;;;9.55;47.02;102230.41;4915261;29;20072;-77
2024/01/25 17:59:07;;;;;;;11.20;5.70;;;;;;;9.51;46.97;102233.41;4911785;29;20135;-77
2024/01/25 18:01:35;;;;;;;14.10;5.60;;;;;;;9.46;47.22;102239.16;4916466;29;20126;-77
2024/01/25 18:04:04;;;;;;;15.40;6.45;;;;;;;9.41;47.30;102236.69;4905327;29;20605;-76
2024/01/25 18:06:32;;;;;;;14.30;6.53;;;;;;;9.37;47.32;102234.22;4907987;29;20111;-77
2024/01/25 18:09:01;;;;;;;12.90;5.75;;;;;;;9.35;47.76;102233.44;4918660;29;20135;-76
2024/01/25 18:11:29;;;;;;;14.02;5.72;;;;;;;9.29;47.81;102233.81;4916977;29;20101;-77
2024/01/25 18:13:57;;;;;;;19.98;10.85;;;;;;;9.26;47.81;102233.97;4905033;29;20072;-76
2024/01/25 18:16:25;;;;;;;14.00;8.52;;;;;;;9.22;48.21;102227.84;4908369;29;20095;-77
2024/01/25 18:18:53;;;;;;;13.68;7.10;;;;;;;9.19;48.41;102222.53;4915887;29;20116;-77
2024/01/25 18:21:21;;;;;;;12.85;7.15;;;;;;;9.16;48.17;102222.75;4916493;29;20654;-77
2024/01/25 18:23:49;;;;;;;14.18;7.15;;;;;;;9.13;48.70;102224.78;4917302;29;20040;-77
2024/01/25 18:26:19;;;;;;;11.88;5.57;;;;;;;9.12;48.97;102225.75;4914584;29;20083;-76
2024/01/25 18:28:47;;;;;;;10.48;5.63;;;;;;;9.08;49.08;102227.78;4908812;29;20616;-77
2024/01/25 18:31:18;;;;;;;10.82;5.82;;;;;;;9.06;49.14;102227.00;4909650;29;20040;-77
2024/01/25 18:33:45;;;;;;;10.90;5.50;;;;;;;9.04;48.77;102218.88;4911414;29;20130;-76
2024/01/25 18:36:14;;;;;;;14.75;5.28;;;;;;;9.03;49.24;102224.44;4912988;29;20048;-77
2024/01/25 18:38:42;;;;;;;13.13;5.15;;;;;;;9.01;49.10;102223.63;4915059;29;20052;-76
2024/01/25 18:41:10;;;;;;;11.13;4.90;;;;;;;9.00;49.48;102221.91;4898539;29;20147;-76
2024/01/25 18:43:41;;;;;;;11.13;5.38;;;;;;;9.00;49.60;102216.44;4914684;29;20055;-81
2024/01/25 18:46:09;;;;;;;9.93;5.07;;;;;;;8.97;49.63;102216.63;4896422;29;20040;-80
2024/01/25 18:48:38;;;;;;;11.07;4.90;;;;;;;8.95;49.82;102213.97;4916432;29;20053;-78
2024/01/25 18:51:06;;;;;;;11.85;4.75;;;;;;;8.94;49.65;102209.47;4912367;29;20068;-79
2024/01/25 18:53:35;;;;;;;14.35;5.13;;;;;;;8.94;50.01;102205.88;4900644;29;20135;-77
2024/01/25 18:56:04;;;;;;;13.88;5.82;;;;;;;8.94;49.62;102203.13;4913537;29;20054;-78
2024/01/25 18:58:33;;;;;;;12.90;6.28;;;;;;;8.92;50.29;102199.59;4915379;29;20050;-77
2024/01/25 19:01:05;;;;;;;15.55;6.15;;;;;;;8.92;50.15;102200.50;4914163;29;20132;-77
2024/01/25 19:03:34;;;;;;;12.38;5.35;;;;;;;8.91;50.40;102197.88;4916368;29;20138;-78
2024/01/25 19:06:03;;;;;;;14.07;6.00;;;;;;;8.90;49.94;102187.94;4917882;29;20052;-78
2024/01/25 19:08:32;;;;;;;13.10;4.88;;;;;;;8.88;49.90;102193.47;4898027;29;20887;-78
2024/01/25 19:11:00;;;;;;;10.48;4.78;;;;;;;8.87;50.52;102194.44;4918980;29;20099;-78
2024/01/25 19:13:28;;;;;;;9.27;4.55;;;;;;;8.86;50.27;102186.34;4907038;29;20861;-77
2024/01/25 19:15:56;;;;;;;10.65;5.00;;;;;;;8.83;50.75;102184.69;4918010;29;20595;-76
2024/01/25 19:18:28;;;;;;;9.93;4.10;;;;;;;8.84;50.70;102189.16;4900754;29;20062;-76
2024/01/25 19:20:56;;;;;;;12.10;4.22;;;;;;;8.81;50.31;102185.75;4914359;29;20551;-77
2024/01/25 19:23:24;;;;;;;9.07;4.32;;;;;;;8.80;50.87;102182.13;4893083;29;20246;-76
2024/01/25 19:25:52;;;;;;;9.18;4.30;;;;;;;8.79;50.99;102183.09;4915394;29;20054;-76
2024/01/25 19:28:20;;;;;;;10.05;4.40;;;;;;;8.78;50.93;102188.63;4913623;29;20040;-76
2024/01/25 19:30:48;;;;;;;11.32;4.32;;;;;;;8.78;51.01;102188.63;4914129;29;20473;-76
2024/01/25 19:33:17;;;;;;;9.77;4.72;;;;;;;8.78;51.14;102185.91;4910689;29;20531;-76
2024/01/25 19:35:49;;;;;;;10.32;4.28;;;;;;;8.79;51.42;102188.56;4914545;29;20138;-76
2024/01/25 19:38:21;;;;;;;11.88;4.75;;;;;;;8.77;51.22;102189.59;4907382;29;20040;-77
2024/01/25 19:40:49;;;;;;;10.98;5.13;;;;;;;8.76;51.15;102185.09;4912339;29;20521;-76
2024/01/25 19:43:17;;;;;;;10.63;4.70;;;;;;;8.75;51.26;102186.09;4915226;29;20056;-77
2024/01/25 19:45:45;;;;;;;12.75;5.10;;;;;;;8.74;51.30;102178.88;4896899;29;20071;-76
2024/01/25 19:48:14;;;;;;;11.15;4.90;;;;;;;8.75;51.70;102184.25;4913386;29;20048;-76
2024/01/25 19:50:42;;;;;;;12.98;5.80;;;;;;;8.75;51.75;102183.38;4908234;29;20529;-76
2024/01/25 19:53:12;;;;;;;12.82;5.68;;;;;;;8.75;51.49;102178.81;4891746;29;20142;-76
2024/01/25 19:55:40;;;;;;;11.70;5.85;;;;;;;8.74;51.62;102176.16;4915893;29;20049;-76
2024/01/25 19:58:08;;;;;;;14.48;5.85;;;;;;;8.75;51.68;102180.66;4915023;29;20071;-76
2024/01/25 20:00:36;;;;;;;13.43;5.80;;;;;;;8.74;51.22;102167.97;4914909;29;20147;-76
2024/01/25 20:03:05;;;;;;;13.27;5.93;;;;;;;8.74;51.65;102167.97;4912849;29;20422;-76
2024/01/25 20:05:34;;;;;;;12.77;5.97;;;;;;;8.72;51.76;102162.59;4911833;29;20040;-76
2024/01/25 20:08:03;;;;;;;14.55;6.82;;;;;;;8.72;51.68;102162.59;4906453;29;20052;-76
2024/01/25 20:10:32;;;;;;;12.07;6.03;;;;;;;8.73;51.66;102158.03;4918921;29;20058;-76
2024/01/25 20:13:00;;;;;;;12.60;6.10;;;;;;;8.70;51.53;102151.75;4904793;29;20146;-76
2024/01/25 20:15:28;;;;;;;13.25;5.88;;;;;;;8.69;51.61;102155.47;4912756;29;20043;-76
2024/01/25 20:17:56;;;;;;;11.73;6.60;;;;;;;8.68;51.72;102139.16;4912993;29;20044;-76
2024/01/25 20:20:25;;;;;;;15.20;6.28;;;;;;;8.68;51.88;102140.03;4894543;29;20055;-76
2024/01/25 20:23:09;;;;;;;15.98;6.70;;;;;;;8.66;51.77;102142.00;4914454;29;20118;-76